Quimper, France

12:14 PM CET on December 25, 2014 (GMT +0100)
Pluguffan | Change Station
CLOSE
Current Station
Airport
Location: Quimper,
Elevation: 308 ft
Nearby Weather Stations

Elev 308 ft 47.97 °N, 4.17 °W | Updated 14 minutes ago

Overcast
Overcast
50 °F
Feels Like 50 °F
N
5
Wind Variable Wind from NNW

Today
High -- | Low -- °F
--% Chance of Precip.
Yesterday
High -- | Low -- °F
Precip. -- in
9:05 AM 5:28 PM
Waxing Crescent, 15% visible
Pressure 30.54 in
Visibility 6.2 miles
Clouds Overcast 4800 ft
Dew Point 41 °F
Humidity 71%
Rainfall 0.00 in
Snow Depth Not available.
UV 0 out of 12
Pollen Not available.
Air Quality Not available.
Flu Activity Not available.
METAR LFRQ 251100Z AUTO 33004KT 290V360 9999 OVC048 10/05 Q1034

More Conditions Fewer Conditions

Pressure 30.54 in
Visibility 6.2 miles
Clouds Overcast 4800 ft
Dew Point 41 °F
Humidity 71%
Rainfall 0.00 in
Snow Depth Not available.
UV 0 out of 12
Pollen Not available.
Air Quality Not available.
Flu Activity Not available.
METAR LFRQ 251100Z AUTO 33004KT 290V360 9999 OVC048 10/05 Q1034

More Conditions Fewer Conditions

10-Day Weather Forecast

Almanac

Astronomy

Dec. 25, 2014 Rise Set
Actual Time
Civil Twilight
Nautical Twilight
Astronomical Twilight
Moon
Length of Visible Light
Length of Day
Tomorrow will be .
, % of the Moon is Illuminated

Today's Extremes

Country Highs Country Lows

Community

WunderPhotos

Upload Photos

1,780,259 photos uploaded!

WunderBlogs® & News

Nearby

Air Quality

  Air Quality AQ Index Pollutant
Not available.

Snow Depth

Station Depth Elevation

Earthquake Activity

City Distance Mag. Time & Date
Minimum magnitude displayed is 2.5.

Coastal Water Temperatures

Place Temperature

Nearby Weather Stations